sensor_id;sensor_type;location;lat;lon;timestamp;pressure;altitude;pressure_sealevel;temperature;humidity
39491;BME280;25175;50.140;18.990;2023-04-05T11:43:50;98874.78;;;5.19;31.38
39491;BME280;25175;50.140;18.990;2023-04-05T11:46:57;98866.16;;;5.27;31.65
39491;BME280;25175;50.140;18.990;2023-04-05T11:50:04;98875.91;;;5.33;31.43
39491;BME280;25175;50.140;18.990;2023-04-05T11:53:15;98885.38;;;5.26;31.27
39491;BME280;25175;50.140;18.990;2023-04-05T11:56:21;98882.28;;;5.14;30.75
39491;BME280;25175;50.140;18.990;2023-04-05T11:59:34;98880.50;;;5.07;31.71
39491;BME280;25175;50.140;18.990;2023-04-05T12:02:42;98881.31;;;5.15;32.12
39491;BME280;25175;50.140;18.990;2023-04-05T12:05:49;98864.88;;;5.31;31.52
39491;BME280;25175;50.140;18.990;2023-04-05T12:08:55;98870.84;;;5.55;31.74
39491;BME280;25175;50.140;18.990;2023-04-05T12:12:00;98862.50;;;5.76;31.87
39491;BME280;25175;50.140;18.990;2023-04-05T12:15:09;98842.03;;;5.65;31.26
39491;BME280;25175;50.140;18.990;2023-04-05T12:18:19;98874.41;;;5.70;30.86
39491;BME280;25175;50.140;18.990;2023-04-05T12:21:25;98863.00;;;5.63;31.37
39491;BME280;25175;50.140;18.990;2023-04-05T12:24:31;98871.16;;;5.60;31.19
39491;BME280;25175;50.140;18.990;2023-04-05T12:27:37;98865.13;;;5.60;31.24
39491;BME280;25175;50.140;18.990;2023-04-05T12:30:53;98865.47;;;5.73;31.50
39491;BME280;25175;50.140;18.990;2023-04-05T12:33:59;98860.81;;;5.91;31.34
39491;BME280;25175;50.140;18.990;2023-04-05T12:37:05;98844.66;;;6.03;31.54
39491;BME280;25175;50.140;18.990;2023-04-05T12:40:10;98856.72;;;6.27;30.35
39491;BME280;25175;50.140;18.990;2023-04-05T12:43:16;98853.34;;;6.26;30.19
39491;BME280;25175;50.140;18.990;2023-04-05T12:46:37;98864.44;;;6.20;30.30
39491;BME280;25175;50.140;18.990;2023-04-05T12:49:44;98843.00;;;6.02;30.28
39491;BME280;25175;50.140;18.990;2023-04-05T12:52:55;98856.50;;;6.06;30.63
39491;BME280;25175;50.140;18.990;2023-04-05T12:56:06;98852.97;;;5.99;30.50
39491;BME280;25175;50.140;18.990;2023-04-05T12:59:10;98832.34;;;5.89;30.26
39491;BME280;25175;50.140;18.990;2023-04-05T13:02:18;98847.59;;;6.00;29.73
39491;BME280;25175;50.140;18.990;2023-04-05T13:05:24;98844.09;;;6.16;30.28
39491;BME280;25175;50.140;18.990;2023-04-05T13:08:30;98834.31;;;6.18;30.25
39491;BME280;25175;50.140;18.990;2023-04-05T13:11:34;98846.31;;;6.27;30.37
39491;BME280;25175;50.140;18.990;2023-04-05T13:14:40;98853.41;;;6.41;30.67
39491;BME280;25175;50.140;18.990;2023-04-05T13:17:47;98853.94;;;6.36;29.75
39491;BME280;25175;50.140;18.990;2023-04-05T13:20:54;98815.50;;;6.08;30.27
39491;BME280;25175;50.140;18.990;2023-04-05T13:23:58;98847.84;;;6.13;30.39
39491;BME280;25175;50.140;18.990;2023-04-05T13:27:03;98848.88;;;6.04;30.02
39491;BME280;25175;50.140;18.990;2023-04-05T13:30:09;98852.97;;;5.99;30.31
39491;BME280;25175;50.140;18.990;2023-04-05T13:33:19;98854.59;;;6.00;30.69
39491;BME280;25175;50.140;18.990;2023-04-05T13:36:24;98825.72;;;5.79;30.55
39491;BME280;25175;50.140;18.990;2023-04-05T13:39:29;98842.09;;;5.95;29.83
39491;BME280;25175;50.140;18.990;2023-04-05T13:42:34;98860.16;;;5.97;30.05
39491;BME280;25175;50.140;18.990;2023-04-05T13:45:39;98844.53;;;5.97;30.17
39491;BME280;25175;50.140;18.990;2023-04-05T13:48:47;98851.66;;;6.03;30.72
39491;BME280;25175;50.140;18.990;2023-04-05T13:51:53;98840.84;;;6.14;30.00
39491;BME280;25175;50.140;18.990;2023-04-05T13:54:57;98836.06;;;6.25;30.22
39491;BME280;25175;50.140;18.990;2023-04-05T13:58:02;98840.41;;;6.33;29.42
39491;BME280;25175;50.140;18.990;2023-04-05T14:01:07;98842.28;;;6.47;29.97
39491;BME280;25175;50.140;18.990;2023-04-05T14:04:15;98842.16;;;6.40;29.20
39491;BME280;25175;50.140;18.990;2023-04-05T14:07:21;98845.00;;;6.31;29.22
39491;BME280;25175;50.140;18.990;2023-04-05T14:10:27;98845.16;;;6.29;29.37
39491;BME280;25175;50.140;18.990;2023-04-05T14:13:34;98839.66;;;6.24;29.71
39491;BME280;25175;50.140;18.990;2023-04-05T14:16:39;98840.50;;;6.17;29.07
39491;BME280;25175;50.140;18.990;2023-04-05T14:19:46;98832.75;;;6.09;29.42
39491;BME280;25175;50.140;18.990;2023-04-05T14:22:51;98844.78;;;6.10;30.07
39491;BME280;25175;50.140;18.990;2023-04-05T14:25:56;98840.03;;;6.13;30.43
39491;BME280;25175;50.140;18.990;2023-04-05T14:29:02;98837.50;;;6.28;31.00
39491;BME280;25175;50.140;18.990;2023-04-05T14:32:07;98828.78;;;6.43;30.26
39491;BME280;25175;50.140;18.990;2023-04-05T14:35:15;98825.31;;;6.51;29.49
39491;BME280;25175;50.140;18.990;2023-04-05T14:38:20;98828.25;;;6.48;29.28
39491;BME280;25175;50.140;18.990;2023-04-05T14:41:25;98838.09;;;6.38;29.58
39491;BME280;25175;50.140;18.990;2023-04-05T14:44:30;98838.78;;;6.32;29.69
39491;BME280;25175;50.140;18.990;2023-04-05T14:47:36;98847.00;;;6.21;29.57
39491;BME280;25175;50.140;18.990;2023-04-05T14:50:43;98834.03;;;6.13;29.96
39491;BME280;25175;50.140;18.990;2023-04-05T14:53:48;98836.06;;;6.25;31.19
39491;BME280;25175;50.140;18.990;2023-04-05T14:56:54;98831.63;;;6.34;29.66
39491;BME280;25175;50.140;18.990;2023-04-05T14:59:59;98841.00;;;6.43;30.11
39491;BME280;25175;50.140;18.990;2023-04-05T15:03:04;98841.94;;;6.50;29.62
39491;BME280;25175;50.140;18.990;2023-04-05T15:06:12;98831.16;;;6.53;29.94
39491;BME280;25175;50.140;18.990;2023-04-05T15:09:16;98841.25;;;6.56;30.01
39491;BME280;25175;50.140;18.990;2023-04-05T15:12:22;98837.00;;;6.55;29.82
39491;BME280;25175;50.140;18.990;2023-04-05T15:15:27;98834.59;;;6.53;30.19
39491;BME280;25175;50.140;18.990;2023-04-05T15:18:33;98831.41;;;6.43;30.09
39491;BME280;25175;50.140;18.990;2023-04-05T15:21:41;98840.22;;;6.42;30.43
39491;BME280;25175;50.140;18.990;2023-04-05T15:24:47;98836.84;;;6.34;29.86
39491;BME280;25175;50.140;18.990;2023-04-05T15:27:51;98838.19;;;6.22;30.04
39491;BME280;25175;50.140;18.990;2023-04-05T15:30:59;98838.88;;;6.16;30.26
39491;BME280;25175;50.140;18.990;2023-04-05T15:34:03;98832.41;;;6.12;30.18
39491;BME280;25175;50.140;18.990;2023-04-05T15:37:11;98841.38;;;6.09;30.67
39491;BME280;25175;50.140;18.990;2023-04-05T15:40:16;98835.66;;;6.14;30.87
39491;BME280;25175;50.140;18.990;2023-04-05T15:43:22;98840.38;;;6.10;30.42
39491;BME280;25175;50.140;18.990;2023-04-05T15:46:27;98833.88;;;6.06;30.38
39491;BME280;25175;50.140;18.990;2023-04-05T15:49:32;98830.13;;;6.09;31.35
39491;BME280;25175;50.140;18.990;2023-04-05T15:52:39;98845.13;;;6.07;30.87
39491;BME280;25175;50.140;18.990;2023-04-05T15:55:44;98838.00;;;6.01;30.54
39491;BME280;25175;50.140;18.990;2023-04-05T15:58:49;98836.41;;;5.92;30.23
39491;BME280;25175;50.140;18.990;2023-04-05T16:01:54;98840.31;;;5.88;30.88
39491;BME280;25175;50.140;18.990;2023-04-05T16:04:59;98831.91;;;5.78;30.84
39491;BME280;25175;50.140;18.990;2023-04-05T16:08:10;98851.41;;;5.82;30.66
39491;BME280;25175;50.140;18.990;2023-04-05T16:11:15;98839.38;;;5.81;30.99
39491;BME280;25175;50.140;18.990;2023-04-05T16:14:20;98832.88;;;5.85;30.70
39491;BME280;25175;50.140;18.990;2023-04-05T16:17:25;98834.13;;;5.89;31.06
39491;BME280;25175;50.140;18.990;2023-04-05T16:20:31;98842.28;;;5.86;30.97
39491;BME280;25175;50.140;18.990;2023-04-05T16:23:38;98838.06;;;5.85;31.17
39491;BME280;25175;50.140;18.990;2023-04-05T16:26:46;98841.50;;;5.77;31.35
39491;BME280;25175;50.140;18.990;2023-04-05T16:29:52;98843.81;;;5.64;30.73
39491;BME280;25175;50.140;18.990;2023-04-05T16:32:57;98839.44;;;5.57;31.14
39491;BME280;25175;50.140;18.990;2023-04-05T16:36:02;98843.97;;;5.55;31.00
39491;BME280;25175;50.140;18.990;2023-04-05T16:39:10;98850.81;;;5.56;31.33
39491;BME280;25175;50.140;18.990;2023-04-05T16:42:15;98849.34;;;5.53;31.85
39491;BME280;25175;50.140;18.990;2023-04-05T16:45:20;98854.59;;;5.45;31.81
39491;BME280;25175;50.140;18.990;2023-04-05T16:48:25;98856.09;;;5.32;32.10
39491;BME280;25175;50.140;18.990;2023-04-05T16:51:33;98857.41;;;5.20;32.30
39491;BME280;25175;50.140;18.990;2023-04-05T16:54:41;98848.13;;;5.09;32.37
39491;BME280;25175;50.140;18.990;2023-04-05T16:57:46;98835.78;;;4.87;32.96
39491;BME280;25175;50.140;18.990;2023-04-05T17:00:51;98860.53;;;4.99;33.23
39491;BME280;25175;50.140;18.990;2023-04-05T17:03:59;98861.97;;;5.02;33.61
39491;BME280;25175;50.140;18.990;2023-04-05T17:07:04;98872.38;;;5.02;33.63
39491;BME280;25175;50.140;18.990;2023-04-05T17:10:12;98861.47;;;4.98;33.62
39491;BME280;25175;50.140;18.990;2023-04-05T17:13:17;98775.72;;;4.34;33.63
39491;BME280;25175;50.140;18.990;2023-04-05T17:16:22;98866.06;;;4.88;33.89
39491;BME280;25175;50.140;18.990;2023-04-05T17:19:27;98872.38;;;4.86;33.76
39491;BME280;25175;50.140;18.990;2023-04-05T17:22:32;98870.25;;;4.81;33.69
39491;BME280;25175;50.140;18.990;2023-04-05T17:25:40;98870.91;;;4.75;33.83
39491;BME280;25175;50.140;18.990;2023-04-05T17:28:45;98872.34;;;4.62;33.95
39491;BME280;25175;50.140;18.990;2023-04-05T17:31:50;98868.78;;;4.63;34.14
39491;BME280;25175;50.140;18.990;2023-04-05T17:34:55;98882.09;;;4.60;34.01
39491;BME280;25175;50.140;18.990;2023-04-05T17:38:00;98887.63;;;4.65;34.80
39491;BME280;25175;50.140;18.990;2023-04-05T17:41:08;98891.03;;;4.65;34.59
39491;BME280;25175;50.140;18.990;2023-04-05T17:44:13;98887.28;;;4.60;34.37
39491;BME280;25175;50.140;18.990;2023-04-05T17:47:20;98899.97;;;4.63;34.86
39491;BME280;25175;50.140;18.990;2023-04-05T17:50:25;98899.66;;;4.58;34.82
39491;BME280;25175;50.140;18.990;2023-04-05T17:53:30;98904.16;;;4.56;34.39
39491;BME280;25175;50.140;18.990;2023-04-05T17:56:37;98913.28;;;4.52;35.02
39491;BME280;25175;50.140;18.990;2023-04-05T17:59:43;98911.47;;;4.44;35.25
39491;BME280;25175;50.140;18.990;2023-04-05T18:02:48;98928.00;;;4.43;35.39
39491;BME280;25175;50.140;18.990;2023-04-05T18:05:54;98903.44;;;4.22;34.96
39491;BME280;25175;50.140;18.990;2023-04-05T18:08:59;98918.38;;;4.28;35.43
39491;BME280;25175;50.140;18.990;2023-04-05T18:12:07;98915.16;;;4.26;35.88
39491;BME280;25175;50.140;18.990;2023-04-05T18:15:12;98926.81;;;4.22;35.57
39491;BME280;25175;50.140;18.990;2023-04-05T18:18:18;98921.41;;;4.15;36.47
39491;BME280;25175;50.140;18.990;2023-04-05T18:21:22;98882.25;;;3.93;36.58
39491;BME280;25175;50.140;18.990;2023-04-05T18:24:29;98929.34;;;4.06;36.15
39491;BME280;25175;50.140;18.990;2023-04-05T18:27:36;98926.88;;;4.04;36.59
39491;BME280;25175;50.140;18.990;2023-04-05T18:30:43;98805.94;;;3.19;36.50
39491;BME280;25175;50.140;18.990;2023-04-05T18:33:50;98937.88;;;3.90;36.55
39491;BME280;25175;50.140;18.990;2023-04-05T18:36:55;98930.38;;;3.87;36.97
39491;BME280;25175;50.140;18.990;2023-04-05T18:40:00;98934.78;;;3.87;36.90
39491;BME280;25175;50.140;18.990;2023-04-05T18:43:08;98934.78;;;3.87;37.31
39491;BME280;25175;50.140;18.990;2023-04-05T18:46:12;98930.72;;;3.92;37.78
39491;BME280;25175;50.140;18.990;2023-04-05T18:49:19;98939.03;;;3.96;37.94
39491;BME280;25175;50.140;18.990;2023-04-05T18:52:23;98933.03;;;3.95;38.01
39491;BME280;25175;50.140;18.990;2023-04-05T18:55:34;98935.16;;;4.00;37.60
39491;BME280;25175;50.140;18.990;2023-04-05T18:58:43;98934.16;;;3.93;37.36
39491;BME280;25175;50.140;18.990;2023-04-05T19:01:49;98932.63;;;3.82;37.55
39491;BME280;25175;50.140;18.990;2023-04-05T19:04:53;98934.34;;;3.74;37.29
39491;BME280;25175;50.140;18.990;2023-04-05T19:08:00;98934.94;;;3.68;37.78
39491;BME280;25175;50.140;18.990;2023-04-05T19:11:06;98924.53;;;3.60;37.81
39491;BME280;25175;50.140;18.990;2023-04-05T19:14:14;98930.63;;;3.51;37.44
39491;BME280;25175;50.140;18.990;2023-04-05T19:17:19;98934.94;;;3.42;37.93
39491;BME280;25175;50.140;18.990;2023-04-05T19:20:25;98924.97;;;3.30;38.23
39491;BME280;25175;50.140;18.990;2023-04-05T19:23:29;98933.16;;;3.17;38.62
39491;BME280;25175;50.140;18.990;2023-04-05T19:26:35;98932.78;;;3.12;38.66
39491;BME280;25175;50.140;18.990;2023-04-05T19:29:50;98936.50;;;3.10;38.66
39491;BME280;25175;50.140;18.990;2023-04-05T19:32:57;98942.41;;;3.02;39.01
39491;BME280;25175;50.140;18.990;2023-04-05T19:36:02;98927.56;;;2.87;39.37
39491;BME280;25175;50.140;18.990;2023-04-05T19:39:09;98819.53;;;2.00;39.33
39491;BME280;25175;50.140;18.990;2023-04-05T19:42:14;98923.94;;;2.53;39.63
39491;BME280;25175;50.140;18.990;2023-04-05T19:45:26;98933.00;;;2.49;39.97
39491;BME280;25175;50.140;18.990;2023-04-05T19:48:36;98933.94;;;2.48;39.96
39491;BME280;25175;50.140;18.990;2023-04-05T19:51:42;98933.78;;;2.49;39.92
39491;BME280;25175;50.140;18.990;2023-04-05T19:54:47;98923.75;;;2.46;40.12
39491;BME280;25175;50.140;18.990;2023-04-05T19:57:56;98921.28;;;2.45;40.12
39491;BME280;25175;50.140;18.990;2023-04-05T20:01:05;98921.94;;;2.47;40.48
39491;BME280;25175;50.140;18.990;2023-04-05T20:04:13;98931.94;;;2.42;39.96
39491;BME280;25175;50.140;18.990;2023-04-05T20:07:19;98926.53;;;2.35;40.42
39491;BME280;25175;50.140;18.990;2023-04-05T20:10:40;98925.91;;;2.24;40.44
39491;BME280;25175;50.140;18.990;2023-04-05T20:13:49;98925.56;;;2.09;40.36
39491;BME280;25175;50.140;18.990;2023-04-05T20:16:59;98918.28;;;1.95;40.92
39491;BME280;25175;50.140;18.990;2023-04-05T20:20:05;98919.94;;;1.87;41.10
39491;BME280;25175;50.140;18.990;2023-04-05T20:23:11;98919.00;;;1.88;41.52
39491;BME280;25175;50.140;18.990;2023-04-05T20:26:25;98927.13;;;1.93;40.97
39491;BME280;25175;50.140;18.990;2023-04-05T20:29:32;98914.75;;;1.96;41.00
39491;BME280;25175;50.140;18.990;2023-04-05T20:32:39;98912.19;;;1.87;41.46
39491;BME280;25175;50.140;18.990;2023-04-05T20:35:46;98912.75;;;1.81;41.52
39491;BME280;25175;50.140;18.990;2023-04-05T20:38:51;98906.66;;;1.72;41.75
39491;BME280;25175;50.140;18.990;2023-04-05T20:41:56;98913.63;;;1.62;42.30
39491;BME280;25175;50.140;18.990;2023-04-05T20:45:01;98915.03;;;1.57;42.70
39491;BME280;25175;50.140;18.990;2023-04-05T20:48:09;98909.59;;;1.50;42.77
39491;BME280;25175;50.140;18.990;2023-04-05T20:51:14;98906.47;;;1.47;42.97
39491;BME280;25175;50.140;18.990;2023-04-05T20:54:20;98895.16;;;1.38;43.14
39491;BME280;25175;50.140;18.990;2023-04-05T20:57:25;98910.81;;;1.37;43.10
39491;BME280;25175;50.140;18.990;2023-04-05T21:00:30;98917.50;;;1.30;43.29
39491;BME280;25175;50.140;18.990;2023-04-05T21:03:39;98907.31;;;1.28;43.36
39491;BME280;25175;50.140;18.990;2023-04-05T21:06:45;98912.75;;;1.25;43.21
39491;BME280;25175;50.140;18.990;2023-04-05T21:09:49;98913.31;;;1.19;43.28
39491;BME280;25175;50.140;18.990;2023-04-05T21:12:55;98917.25;;;1.14;43.35
39491;BME280;25175;50.140;18.990;2023-04-05T21:15:59;98908.16;;;1.19;43.39
39491;BME280;25175;50.140;18.990;2023-04-05T21:19:07;98905.81;;;1.26;43.03
39491;BME280;25175;50.140;18.990;2023-04-05T21:22:12;98908.53;;;1.34;42.64
39491;BME280;25175;50.140;18.990;2023-04-05T21:25:17;98911.38;;;1.31;42.86
39491;BME280;25175;50.140;18.990;2023-04-05T21:28:22;98801.91;;;0.67;42.92
39491;BME280;25175;50.140;18.990;2023-04-05T21:31:27;98898.06;;;1.26;43.16
39491;BME280;25175;50.140;18.990;2023-04-05T21:34:35;98901.16;;;1.29;43.01
39491;BME280;25175;50.140;18.990;2023-04-05T21:37:40;98915.31;;;1.35;42.89
39491;BME280;25175;50.140;18.990;2023-04-05T21:40:45;98902.00;;;1.30;42.96
39491;BME280;25175;50.140;18.990;2023-04-05T21:43:50;98899.31;;;1.22;43.02
39491;BME280;25175;50.140;18.990;2023-04-05T21:46:55;98898.22;;;1.24;43.09
39491;BME280;25175;50.140;18.990;2023-04-05T21:50:04;98901.63;;;1.15;43.44
39491;BME280;25175;50.140;18.990;2023-04-05T21:53:10;98905.97;;;1.05;44.02
39491;BME280;25175;50.140;18.990;2023-04-05T21:56:15;98890.19;;;0.99;44.08
39491;BME280;25175;50.140;18.990;2023-04-05T21:59:21;98861.13;;;0.68;44.53
39491;BME280;25175;50.140;18.990;2023-04-05T22:02:27;98896.75;;;0.74;44.67
39491;BME280;25175;50.140;18.990;2023-04-05T22:05:34;98907.34;;;0.62;45.00
39491;BME280;25175;50.140;18.990;2023-04-05T22:08:39;98908.28;;;0.51;45.41
39491;BME280;25175;50.140;18.990;2023-04-05T22:11:43;98901.19;;;0.44;45.60
39491;BME280;25175;50.140;18.990;2023-04-05T22:14:49;98786.34;;;-0.28;45.72
39491;BME280;25175;50.140;18.990;2023-04-05T22:17:53;98906.91;;;0.38;45.64
39491;BME280;25175;50.140;18.990;2023-04-05T22:21:01;98916.44;;;0.37;45.98
39491;BME280;25175;50.140;18.990;2023-04-05T22:24:06;98906.53;;;0.42;45.97
39491;BME280;25175;50.140;18.990;2023-04-05T22:27:12;98923.94;;;0.50;45.95
39491;BME280;25175;50.140;18.990;2023-04-05T22:30:18;98911.56;;;0.53;45.79
39491;BME280;25175;50.140;18.990;2023-04-05T22:33:24;98911.56;;;0.53;45.49
39491;BME280;25175;50.140;18.990;2023-04-05T22:36:31;98907.75;;;0.48;45.40
39491;BME280;25175;50.140;18.990;2023-04-05T22:39:36;98907.63;;;0.49;45.52
39491;BME280;25175;50.140;18.990;2023-04-05T22:42:41;98903.81;;;0.53;45.74
39491;BME280;25175;50.140;18.990;2023-04-05T22:45:47;98899.19;;;0.57;45.43
39491;BME280;25175;50.140;18.990;2023-04-05T22:48:52;98892.66;;;0.53;45.32
39491;BME280;25175;50.140;18.990;2023-04-05T22:52:00;98897.16;;;0.60;45.16
39491;BME280;25175;50.140;18.990;2023-04-05T22:55:06;98903.69;;;0.64;45.05
39491;BME280;25175;50.140;18.990;2023-04-05T22:58:12;98899.19;;;0.66;45.01
39491;BME280;25175;50.140;18.990;2023-04-05T23:01:17;98895.00;;;0.65;45.14
39491;BME280;25175;50.140;18.990;2023-04-05T23:04:23;98893.38;;;0.64;45.39
39491;BME280;25175;50.140;18.990;2023-04-05T23:07:30;98902.88;;;0.64;45.39
39491;BME280;25175;50.140;18.990;2023-04-05T23:10:35;98895.66;;;0.58;45.58
39491;BME280;25175;50.140;18.990;2023-04-05T23:13:39;98893.50;;;0.63;45.64
39491;BME280;25175;50.140;18.990;2023-04-05T23:16:45;98904.91;;;0.60;45.70
39491;BME280;25175;50.140;18.990;2023-04-05T23:19:49;98893.34;;;0.55;45.74
39491;BME280;25175;50.140;18.990;2023-04-05T23:22:57;98901.06;;;0.55;45.85
39491;BME280;25175;50.140;18.990;2023-04-05T23:26:03;98911.41;;;0.55;46.27
39491;BME280;25175;50.140;18.990;2023-04-05T23:29:08;98895.91;;;0.55;46.39
39491;BME280;25175;50.140;18.990;2023-04-05T23:32:13;98897.81;;;0.53;46.17
39491;BME280;25175;50.140;18.990;2023-04-05T23:35:18;98894.84;;;0.48;45.85
39491;BME280;25175;50.140;18.990;2023-04-05T23:38:26;98889.53;;;0.40;45.85
39491;BME280;25175;50.140;18.990;2023-04-05T23:41:31;98890.50;;;0.39;46.04
39491;BME280;25175;50.140;18.990;2023-04-05T23:44:36;98896.03;;;0.34;46.09
39491;BME280;25175;50.140;18.990;2023-04-05T23:47:41;98889.66;;;0.29;46.07
39491;BME280;25175;50.140;18.990;2023-04-05T23:50:46;98896.16;;;0.23;46.28
39491;BME280;25175;50.140;18.990;2023-04-05T23:53:54;98898.84;;;0.22;46.42
39491;BME280;25175;50.140;18.990;2023-04-05T23:56:59;98890.44;;;0.20;46.57
